Time;durP1;ratioP1;P1;durP2;ratioP2;P2;SDS_P1;SDS_P2;PMS_P1;PMS_P2;Temp;Humidity;BMP_temperature;BMP_pressure;BME280_temperature;BME280_humidity;BME280_pressure;Samples;Min_cycle;Max_cycle;Signal;HPM_P1;HPM_P2
2022/11/01 00:05:16;;;;;;;6.38;1.95;;;;;;;19.81;53.14;100735.56;16131611;19;129515;-35
2022/11/01 00:10:37;;;;;;;3.95;1.90;;;;;;;19.80;53.18;100739.41;16131908;19;129610;-35
2022/11/01 00:15:59;;;;;;;3.63;1.67;;;;;;;19.79;53.07;100729.41;16132075;19;130127;-35
2022/11/01 00:21:21;;;;;;;4.20;2.05;;;;;;;19.77;53.09;100717.72;16130648;19;128890;-35
2022/11/01 00:26:43;;;;;;;3.55;1.80;;;;;;;19.76;53.23;100732.69;16128863;19;129584;-36
2022/11/01 00:32:05;;;;;;;5.50;1.77;;;;;;;19.74;52.77;100716.31;16130038;19;129492;-35
2022/11/01 00:37:28;;;;;;;5.18;1.80;;;;;;;19.74;52.95;100712.69;16129405;19;135165;-35
2022/11/01 00:42:50;;;;;;;4.53;1.92;;;;;;;19.75;52.87;100708.81;16128952;19;129918;-35
2022/11/01 00:48:12;;;;;;;6.72;1.90;;;;;;;19.73;53.03;100711.00;16130561;19;130235;-35
2022/11/01 00:53:34;;;;;;;2.78;1.52;;;;;;;19.71;52.99;100708.50;16127757;19;129435;-35
2022/11/01 00:58:55;;;;;;;5.20;2.05;;;;;;;19.69;52.79;100714.28;16127058;19;129489;-35
2022/11/01 01:04:17;;;;;;;3.88;2.00;;;;;;;19.68;52.61;100720.97;16128206;19;129510;-35
2022/11/01 01:09:39;;;;;;;5.93;1.92;;;;;;;19.69;52.97;100716.25;16130762;19;130263;-35
2022/11/01 01:15:01;;;;;;;5.97;1.67;;;;;;;19.68;52.90;100720.13;16128280;19;129001;-35
2022/11/01 01:20:23;;;;;;;2.83;1.52;;;;;;;19.66;52.94;100716.75;16126504;19;129223;-35
2022/11/01 01:25:44;;;;;;;4.13;1.85;;;;;;;19.65;52.95;100721.47;16128815;19;129681;-35
2022/11/01 01:31:07;;;;;;;2.60;1.52;;;;;;;19.64;52.94;100717.03;16127563;19;129192;-35
2022/11/01 01:36:29;;;;;;;2.28;1.45;;;;;;;19.63;52.53;100718.13;16121792;19;129542;-35
2022/11/01 01:41:56;;;;;;;4.90;1.70;;;;;;;19.64;52.58;100730.03;16127512;19;129916;-35
2022/11/01 01:47:27;;;;;;;3.58;1.50;;;;;;;19.63;52.74;100732.00;16120872;19;129812;-35
2022/11/01 01:53:01;;;;;;;4.88;1.77;;;;;;;19.64;52.54;100728.13;16124661;19;129369;-35
2022/11/01 01:58:29;;;;;;;3.13;1.67;;;;;;;19.60;52.59;100721.41;16124103;19;129196;-35
2022/11/01 02:03:51;;;;;;;4.03;1.45;;;;;;;19.61;52.56;100731.41;16125010;19;129525;-35
2022/11/01 02:09:15;;;;;;;3.05;1.42;;;;;;;19.61;52.46;100745.28;16122901;19;130660;-35
2022/11/01 02:14:39;;;;;;;3.67;1.70;;;;;;;19.62;52.18;100744.19;16121409;19;129685;-35
2022/11/01 02:20:12;;;;;;;2.25;1.30;;;;;;;19.62;52.30;100746.13;16122474;19;129808;-35
2022/11/01 02:26:11;;;;;;;4.00;1.88;;;;;;;19.60;52.59;100762.19;16122089;19;129661;-35
2022/11/01 02:31:51;;;;;;;3.38;1.73;;;;;;;19.57;52.64;100762.72;16121293;19;129178;-35
2022/11/01 02:37:26;;;;;;;3.30;1.70;;;;;;;19.59;52.17;100772.44;16121831;19;129065;-35
2022/11/01 02:42:54;;;;;;;3.63;1.40;;;;;;;19.57;52.46;100801.56;16121919;19;129480;-35
2022/11/01 02:48:22;;;;;;;3.50;1.67;;;;;;;19.57;52.47;100813.47;16129162;19;129219;-35
2022/11/01 02:53:44;;;;;;;3.47;1.95;;;;;;;19.55;52.01;100812.91;16136334;19;129687;-35
2022/11/01 02:59:15;;;;;;;3.85;1.48;;;;;;;19.55;52.44;100824.03;16135388;19;130834;-35
2022/11/01 03:04:37;;;;;;;2.97;1.38;;;;;;;19.53;52.50;100834.53;16134874;19;129657;-35
2022/11/01 03:10:00;;;;;;;1.88;1.13;;;;;;;19.53;52.18;100851.19;16134755;19;129293;-35
2022/11/01 03:15:28;;;;;;;4.30;1.13;;;;;;;19.52;51.88;100857.81;16133150;19;134673;-35
2022/11/01 03:20:58;;;;;;;3.63;1.23;;;;;;;19.52;52.10;100855.03;16135120;19;130589;-35
2022/11/01 03:26:25;;;;;;;3.58;1.33;;;;;;;19.51;52.24;100878.34;16132465;19;129352;-35
2022/11/01 03:31:49;;;;;;;3.33;1.10;;;;;;;19.51;52.12;100887.47;16135988;19;130569;-35
2022/11/01 03:37:12;;;;;;;1.90;1.00;;;;;;;19.50;52.18;100891.38;16133545;19;130261;-35
2022/11/01 03:42:36;;;;;;;3.85;1.58;;;;;;;19.51;51.98;100903.31;16129856;19;129764;-35
2022/11/01 03:47:59;;;;;;;1.20;0.90;;;;;;;19.51;52.04;100914.41;16131524;19;130904;-35
2022/11/01 03:53:23;;;;;;;1.30;0.88;;;;;;;19.50;51.94;100915.50;16130927;19;132413;-35
2022/11/01 03:58:45;;;;;;;1.63;0.80;;;;;;;19.50;52.06;100934.91;16131373;19;129637;-35
2022/11/01 04:04:06;;;;;;;2.53;1.23;;;;;;;19.49;52.05;100938.78;16132469;19;129786;-35
2022/11/01 04:09:28;;;;;;;1.10;0.63;;;;;;;19.47;51.57;100952.91;16129567;19;129413;-35
2022/11/01 04:20:33;;;;;;;1.80;0.70;;;;;;;19.48;51.68;100990.66;16127777;19;129698;-35
2022/11/01 04:25:55;;;;;;;2.63;0.60;;;;;;;19.47;51.86;101010.31;16130822;19;129453;-35
2022/11/01 04:31:16;;;;;;;2.70;0.80;;;;;;;19.47;51.82;101024.19;16129031;19;130964;-35
2022/11/01 04:36:38;;;;;;;1.80;0.70;;;;;;;19.46;51.55;101036.38;16129542;19;130087;-35
2022/11/01 04:42:00;;;;;;;0.75;0.60;;;;;;;19.47;51.72;101040.84;16128735;19;129537;-35
2022/11/01 04:47:22;;;;;;;1.95;0.60;;;;;;;19.46;51.26;101050.25;16127170;19;133665;-35
2022/11/01 04:52:43;;;;;;;1.15;0.65;;;;;;;19.46;51.29;101058.59;16129561;19;129498;-35
2022/11/01 04:58:05;;;;;;;2.10;0.60;;;;;;;19.45;51.22;101070.75;16127899;19;130217;-35
2022/11/01 05:03:27;;;;;;;2.65;0.52;;;;;;;19.44;51.19;101074.66;16128797;19;131199;-35
2022/11/01 05:08:48;;;;;;;2.00;0.50;;;;;;;19.43;50.88;101078.53;16126174;19;129973;-35
2022/11/01 05:14:10;;;;;;;2.05;0.45;;;;;;;19.41;50.78;101083.47;16124756;19;129584;-35
2022/11/01 05:19:32;;;;;;;1.05;0.50;;;;;;;19.41;50.86;101083.47;16126438;19;129640;-35
2022/11/01 05:24:54;;;;;;;0.93;0.55;;;;;;;19.40;51.04;101106.75;16124140;19;129694;-35
2022/11/01 05:30:15;;;;;;;1.35;0.47;;;;;;;19.41;51.22;101114.00;16123305;19;130630;-35
2022/11/01 05:35:37;;;;;;;0.60;0.20;;;;;;;19.39;51.15;101119.75;16124438;19;129440;-35
2022/11/01 05:41:02;;;;;;;1.30;0.30;;;;;;;19.41;50.87;101125.09;16124782;19;129359;-35
2022/11/01 05:46:24;;;;;;;1.17;0.40;;;;;;;19.38;50.80;101134.75;16123222;19;129197;-38
2022/11/01 05:51:45;;;;;;;0.25;0.20;;;;;;;19.37;50.58;101149.72;16127833;19;130148;-35
2022/11/01 05:57:07;;;;;;;2.97;0.50;;;;;;;19.36;50.22;101162.72;16128502;19;133393;-35
2022/11/01 06:02:32;;;;;;;1.42;0.60;;;;;;;19.37;50.01;101160.81;16124556;19;130061;-35
2022/11/01 06:07:54;;;;;;;4.50;0.90;;;;;;;19.35;50.46;101160.22;16124198;19;129623;-35
2022/11/01 06:13:16;;;;;;;2.45;0.63;;;;;;;19.34;49.77;101180.72;16123764;19;129416;-35
2022/11/01 06:18:38;;;;;;;7.00;1.10;;;;;;;19.33;49.89;101177.06;16122832;19;130175;-35
2022/11/01 06:24:00;;;;;;;1.40;0.60;;;;;;;19.32;50.00;101192.03;16122576;19;130269;-35
2022/11/01 06:29:21;;;;;;;4.40;0.93;;;;;;;19.32;49.40;101200.34;16123628;19;129467;-35
2022/11/01 06:34:43;;;;;;;4.30;0.88;;;;;;;19.32;49.35;101192.03;16123250;19;129484;-35
2022/11/01 06:40:06;;;;;;;2.80;0.85;;;;;;;19.31;49.37;101203.38;16123555;19;129370;-35
2022/11/01 06:45:29;;;;;;;4.85;0.75;;;;;;;19.30;49.46;101213.66;16114780;19;130245;-35
2022/11/01 06:50:52;;;;;;;3.50;0.85;;;;;;;19.29;48.78;101228.59;16118451;19;129571;-35
2022/11/01 06:56:14;;;;;;;3.42;0.80;;;;;;;19.30;48.38;101235.84;16120243;19;129602;-35
2022/11/01 07:01:36;;;;;;;5.55;0.80;;;;;;;19.47;48.13;101265.59;16120182;19;129793;-35
2022/11/01 07:06:58;;;;;;;6.53;1.40;;;;;;;19.48;48.19;101258.97;16115008;19;130804;-35
2022/11/01 07:12:20;;;;;;;5.68;0.70;;;;;;;19.44;47.94;101268.88;16118218;19;129790;-35
2022/11/01 07:17:42;;;;;;;7.35;0.98;;;;;;;19.44;47.96;101279.97;16117697;19;130254;-35
2022/11/01 07:23:04;;;;;;;13.10;1.20;;;;;;;19.46;47.74;101291.66;16117602;19;129562;-36
2022/11/01 07:28:27;;;;;;;16.65;1.48;;;;;;;19.48;48.14;101300.59;16118854;19;129828;-34
2022/11/01 07:33:49;;;;;;;9.98;1.42;;;;;;;19.51;48.04;101308.44;16118974;19;129271;-35
2022/11/01 07:39:11;;;;;;;11.50;1.52;;;;;;;19.53;47.66;101320.13;16131319;19;129782;-35
2022/11/01 07:44:33;;;;;;;19.38;1.63;;;;;;;19.56;47.73;101321.56;16130379;19;129361;-35
2022/11/01 07:49:55;;;;;;;5.97;1.10;;;;;;;19.59;47.91;101321.94;16133189;19;130519;-35
2022/11/01 07:55:16;;;;;;;8.10;1.33;;;;;;;19.60;47.79;101323.63;16131514;19;129487;-36
2022/11/01 08:00:39;;;;;;;9.43;1.58;;;;;;;19.63;47.17;101328.69;16131888;19;129638;-35
2022/11/01 08:06:01;;;;;;;8.82;1.50;;;;;;;19.66;46.94;101338.44;16129445;19;129608;-35
2022/11/01 08:11:23;;;;;;;7.28;1.17;;;;;;;19.68;47.34;101342.69;16130682;19;129700;-36
2022/11/01 08:16:48;;;;;;;7.78;1.42;;;;;;;19.80;46.46;101356.53;16130110;19;129668;-36
2022/11/01 08:22:10;;;;;;;;;;;;;;;21.19;43.75;101371.47;16131546;19;129868;-35
2022/11/01 08:27:31;;;;;;;5.70;1.17;;;;;;;22.31;41.33;101365.00;16127957;19;130465;-36
2022/11/01 08:33:03;;;;;;;7.85;1.55;;;;;;;21.43;41.89;101372.13;16128830;19;129276;-35
2022/11/01 08:38:26;;;;;;;5.05;1.58;;;;;;;20.98;42.90;101370.28;16131490;19;131270;-35
2022/11/01 08:43:48;;;;;;;7.32;1.42;;;;;;;20.67;43.16;101369.72;16131483;19;129769;-35
2022/11/01 08:49:11;;;;;;;5.35;1.17;;;;;;;20.48;43.16;101391.31;16129681;19;130729;-35
2022/11/01 08:54:33;;;;;;;12.80;1.88;;;;;;;20.36;43.38;101402.44;16126508;19;129561;-35
2022/11/01 08:59:54;;;;;;;9.52;1.48;;;;;;;20.27;43.69;101405.63;16127161;19;128827;-35
2022/11/01 09:05:16;;;;;;;6.93;1.35;;;;;;;20.21;43.73;101397.44;16126133;19;129666;-35
2022/11/01 09:10:38;;;;;;;8.02;1.67;;;;;;;20.14;44.32;101405.91;16126271;19;129370;-36
2022/11/01 09:16:06;;;;;;;14.23;1.88;;;;;;;20.05;44.37;101412.94;16125464;19;128933;-36
2022/11/01 09:21:29;;;;;;;9.10;1.60;;;;;;;19.94;44.66;101401.53;16126127;19;129537;-36
2022/11/01 09:26:52;;;;;;;7.22;1.48;;;;;;;19.86;44.07;101409.41;16126501;19;130781;-35
2022/11/01 09:32:14;;;;;;;9.35;1.80;;;;;;;19.84;43.86;101407.72;16124091;19;130877;-35
2022/11/01 09:37:36;;;;;;;9.25;1.35;;;;;;;19.84;43.44;101423.53;16120692;19;129243;-35
2022/11/01 09:42:59;;;;;;;9.05;1.50;;;;;;;19.83;44.30;101422.69;16121868;19;129797;-34
2022/11/01 09:48:24;;;;;;;8.67;1.33;;;;;;;19.83;44.00;101432.94;16124654;19;136151;-35
2022/11/01 09:53:48;;;;;;;5.60;1.48;;;;;;;19.82;43.67;101448.75;16127515;19;129846;-34
2022/11/01 09:59:36;;;;;;;7.97;1.60;;;;;;;19.82;43.24;101443.22;16122450;19;130159;-34
2022/11/01 10:05:15;;;;;;;10.27;1.70;;;;;;;19.81;43.27;101437.91;16122751;19;129519;-35
2022/11/01 10:11:01;;;;;;;14.10;2.10;;;;;;;19.81;43.62;101435.97;16119420;19;129537;-35
2022/11/01 10:16:36;;;;;;;12.18;1.70;;;;;;;19.80;43.61;101448.16;16119632;19;129807;-34
2022/11/01 10:22:11;;;;;;;9.27;1.65;;;;;;;19.82;43.65;101459.00;16121298;19;129461;-34
2022/11/01 10:28:12;;;;;;;8.30;1.55;;;;;;;19.83;43.75;101466.25;16121291;19;129181;-35
2022/11/01 10:33:38;;;;;;;6.38;1.05;;;;;;;19.84;43.77;101467.94;16116377;19;129826;-35
2022/11/01 10:39:25;;;;;;;9.93;1.30;;;;;;;19.84;43.55;101459.63;16118402;19;130592;-35
2022/11/01 10:45:14;;;;;;;6.60;1.30;;;;;;;19.82;43.71;101461.78;16120654;19;131374;-35
2022/11/01 10:50:37;;;;;;;10.55;1.98;;;;;;;19.80;43.08;101469.53;16116776;19;129271;-35
2022/11/01 10:56:04;;;;;;;10.20;1.85;;;;;;;19.80;43.10;101475.09;16121800;19;129248;-35
2022/11/01 11:01:30;;;;;;;11.02;1.45;;;;;;;19.80;43.05;101466.75;16119175;19;130042;-35
2022/11/01 11:06:52;;;;;;;9.63;1.63;;;;;;;19.81;43.09;101463.72;16122697;19;130506;-35
2022/11/01 11:12:17;;;;;;;9.98;1.98;;;;;;;19.84;43.55;101456.84;16133684;19;130151;-35
2022/11/01 11:17:43;;;;;;;11.18;2.50;;;;;;;19.83;43.83;101455.16;16133532;19;129963;-35
2022/11/01 11:23:09;;;;;;;10.90;1.70;;;;;;;19.82;43.69;101459.00;16131872;19;129564;-35
2022/11/01 11:28:34;;;;;;;11.02;1.98;;;;;;;19.82;43.67;101456.22;16135135;19;130791;-35
2022/11/01 11:34:01;;;;;;;10.85;1.42;;;;;;;19.84;43.67;101456.84;16129752;19;129534;-35
2022/11/01 11:39:28;;;;;;;11.55;1.50;;;;;;;19.93;43.25;101462.88;16134226;19;129472;-35
2022/11/01 11:44:54;;;;;;;8.15;1.42;;;;;;;20.01;43.35;101450.59;16133437;19;130141;-35
2022/11/01 11:50:20;;;;;;;11.82;1.65;;;;;;;20.05;43.48;101463.75;16130157;19;130242;-35
2022/11/01 11:55:46;;;;;;;8.65;1.42;;;;;;;20.07;43.45;101463.50;16130667;19;130385;-35
2022/11/01 12:01:19;;;;;;;10.65;1.88;;;;;;;20.10;43.03;101471.34;16133498;19;130778;-35
2022/11/01 12:06:45;;;;;;;10.43;1.75;;;;;;;20.10;43.24;101461.09;16131593;19;130151;-35
2022/11/01 12:12:16;;;;;;;9.05;1.73;;;;;;;20.10;43.17;101451.91;16131858;19;129904;-35
2022/11/01 12:17:45;;;;;;;8.35;1.52;;;;;;;20.07;43.51;101455.16;16131822;19;129484;-35
2022/11/01 12:23:26;;;;;;;9.93;1.13;;;;;;;20.05;44.12;101452.63;16131136;19;131781;-35
2022/11/01 12:28:57;;;;;;;11.45;1.90;;;;;;;20.03;43.51;101453.97;16131093;19;129503;-35
2022/11/01 12:34:30;;;;;;;4.05;1.17;;;;;;;20.03;43.69;101445.66;16130643;19;129371;-35
2022/11/01 12:40:11;;;;;;;8.70;1.95;;;;;;;19.99;43.79;101448.91;16127747;19;129437;-35
2022/11/01 12:45:40;;;;;;;12.07;1.67;;;;;;;19.97;43.59;101445.50;16126184;19;129879;-35
2022/11/01 12:51:09;;;;;;;12.38;1.38;;;;;;;19.94;43.41;101440.41;16131483;19;134744;-35
2022/11/01 12:56:31;;;;;;;8.13;1.45;;;;;;;19.89;43.80;101437.53;16131666;19;129792;-35
2022/11/01 13:02:23;;;;;;;9.93;1.67;;;;;;;19.86;43.32;101457.44;16123990;19;131085;-36
2022/11/01 13:07:54;;;;;;;25.35;2.22;;;;;;;19.84;43.03;101429.06;16124136;19;130205;-34
2022/11/01 13:13:32;;;;;;;29.77;2.83;;;;;;;19.81;43.38;101435.13;16124388;19;128948;-35
2022/11/01 13:19:09;;;;;;;21.98;2.30;;;;;;;19.80;44.12;101422.34;16126128;19;129375;-34
2022/11/01 13:24:55;;;;;;;23.10;2.42;;;;;;;19.76;43.95;101421.94;16124601;19;129436;-35
2022/11/01 13:30:18;;;;;;;;;;;;;;;19.73;44.19;101429.94;16126015;19;129098;-34
2022/11/01 13:35:56;;;;;;;12.90;1.77;;;;;;;19.75;44.28;101419.44;16128510;19;129514;-34
2022/11/01 13:41:25;;;;;;;6.90;1.33;;;;;;;19.74;44.39;101409.41;16129028;19;128887;-35
2022/11/01 13:47:07;;;;;;;10.55;1.50;;;;;;;19.73;44.80;101411.34;16128837;19;129669;-34
2022/11/01 13:52:32;;;;;;;11.55;1.15;;;;;;;19.72;44.46;101419.91;16126091;19;129407;-34
2022/11/01 13:57:54;;;;;;;;;;;;;;;19.68;44.76;101414.88;16126089;19;130275;-34
2022/11/01 14:03:20;;;;;;;11.30;1.58;;;;;;;19.71;44.87;101429.31;16127672;19;129771;-34
2022/11/01 14:08:45;;;;;;;6.25;1.10;;;;;;;19.69;44.64;101419.31;16127453;19;131159;-34
2022/11/01 14:14:29;;;;;;;8.55;1.33;;;;;;;19.72;44.24;101431.00;16126236;19;134779;-34
2022/11/01 14:19:54;;;;;;;4.95;0.88;;;;;;;19.70;44.48;101425.72;16125599;19;129434;-34
2022/11/01 14:25:16;;;;;;;6.63;1.13;;;;;;;19.69;44.75;101433.19;16122512;19;130097;-34
2022/11/01 14:30:41;;;;;;;17.58;1.45;;;;;;;19.68;44.53;101425.97;16124185;19;130159;-34
2022/11/01 14:36:05;;;;;;;6.70;0.90;;;;;;;19.69;44.50;101418.47;16118968;19;129761;-35
2022/11/01 14:41:31;;;;;;;7.15;1.50;;;;;;;19.69;44.67;101426.78;16121379;19;135088;-34
2022/11/01 14:46:56;;;;;;;6.88;1.00;;;;;;;19.69;44.48;101426.78;16135654;19;130208;-34
2022/11/01 14:52:29;;;;;;;4.63;1.15;;;;;;;19.72;44.14;101439.34;16135823;19;129855;-34
2022/11/01 14:58:14;;;;;;;10.85;1.35;;;;;;;19.71;44.56;101435.72;16137662;19;129706;-34
2022/11/01 15:03:36;;;;;;;8.05;1.10;;;;;;;19.68;44.25;101434.28;16136426;19;129654;-34
2022/11/01 15:09:01;;;;;;;14.02;1.42;;;;;;;19.68;44.67;101427.88;16135436;19;129411;-34
2022/11/01 15:14:34;;;;;;;6.43;1.02;;;;;;;19.67;43.82;101429.81;16135880;19;129454;-34
2022/11/01 15:19:57;;;;;;;6.00;1.00;;;;;;;19.67;43.86;101428.97;16133665;19;129727;-34
2022/11/01 15:25:22;;;;;;;9.25;1.60;;;;;;;19.67;43.86;101432.59;16133300;19;130354;-34
2022/11/01 15:30:53;;;;;;;9.93;1.42;;;;;;;19.66;44.33;101422.59;16134791;19;130964;-34
2022/11/01 15:36:27;;;;;;;5.35;1.08;;;;;;;19.64;44.42;101408.09;16133558;19;129586;-34
2022/11/01 15:41:49;;;;;;;9.90;1.10;;;;;;;19.62;44.58;101421.38;16134411;19;129431;-34
2022/11/01 15:47:17;;;;;;;9.77;1.35;;;;;;;19.62;44.33;101420.53;16135386;19;130516;-34
2022/11/01 15:52:39;;;;;;;11.38;1.30;;;;;;;19.60;44.76;101417.16;16138757;19;129334;-34
2022/11/01 15:58:09;;;;;;;5.60;1.30;;;;;;;19.60;44.48;101423.53;16130885;19;129602;-34
2022/11/01 16:03:54;;;;;;;6.50;1.13;;;;;;;19.59;44.30;101421.84;16136124;19;130252;-34
2022/11/01 16:09:22;;;;;;;6.53;1.20;;;;;;;19.57;43.84;101434.28;16131854;19;129985;-34
2022/11/01 16:14:57;;;;;;;7.55;1.30;;;;;;;19.55;44.27;101428.97;16130420;19;129822;-35
2022/11/01 16:20:32;;;;;;;7.75;1.58;;;;;;;19.55;44.22;101428.97;16126741;19;130229;-35
2022/11/01 16:26:06;;;;;;;7.60;1.07;;;;;;;19.55;44.01;101428.13;16133413;19;129542;-35
2022/11/01 16:31:29;;;;;;;5.35;1.20;;;;;;;19.52;44.09;101423.91;16126783;19;129924;-35
2022/11/01 16:36:51;;;;;;;9.40;1.27;;;;;;;19.52;43.92;101429.44;16129749;19;129551;-34
2022/11/01 16:42:14;;;;;;;12.82;1.70;;;;;;;19.55;43.86;101436.44;16127724;19;129559;-35
2022/11/01 16:47:36;;;;;;;9.88;1.38;;;;;;;19.59;43.74;101438.50;16125220;19;129328;-36
2022/11/01 16:52:58;;;;;;;10.02;1.17;;;;;;;19.63;43.66;101434.16;16127917;19;129598;-35
2022/11/01 16:58:23;;;;;;;7.88;1.23;;;;;;;19.69;44.04;101444.28;16122495;19;130188;-35
2022/11/01 17:03:46;;;;;;;5.65;1.10;;;;;;;19.73;44.23;101441.91;16127151;19;129738;-35
2022/11/01 17:09:13;;;;;;;8.43;1.25;;;;;;;19.73;43.98;101432.69;16127853;19;131811;-35
2022/11/01 17:14:36;;;;;;;6.20;1.15;;;;;;;19.69;44.11;101427.63;16123399;19;129619;-35
2022/11/01 17:20:00;;;;;;;10.70;1.60;;;;;;;19.67;44.17;101426.19;16127349;19;129665;-35
2022/11/01 17:25:26;;;;;;;5.95;0.93;;;;;;;19.66;44.22;101433.69;16126262;19;133183;-35
2022/11/01 17:30:48;;;;;;;7.30;1.33;;;;;;;19.64;44.27;101429.44;16123915;19;130740;-35
2022/11/01 17:36:14;;;;;;;8.38;1.10;;;;;;;19.63;44.12;101428.59;16124977;19;129208;-35
2022/11/01 17:41:36;;;;;;;4.72;1.10;;;;;;;19.62;43.87;101420.53;16124016;19;129595;-35
2022/11/01 17:46:58;;;;;;;2.67;0.70;;;;;;;19.63;44.12;101422.22;16125544;19;129254;-35
2022/11/01 17:52:20;;;;;;;9.55;1.13;;;;;;;19.63;44.25;101427.78;16123229;19;129616;-35
2022/11/01 17:57:45;;;;;;;4.07;0.90;;;;;;;19.62;44.70;101437.19;16126489;19;129501;-35
2022/11/01 18:03:13;;;;;;;9.43;1.13;;;;;;;19.60;44.68;101429.09;16122876;19;130502;-35
2022/11/01 18:08:42;;;;;;;6.40;1.00;;;;;;;19.60;44.92;101417.16;16120048;19;129745;-38
2022/11/01 18:14:19;;;;;;;4.57;1.00;;;;;;;19.58;45.35;101422.91;16122202;19;129552;-35
2022/11/01 18:19:47;;;;;;;7.38;1.52;;;;;;;19.56;45.17;101432.59;16111440;19;130263;-35
2022/11/01 18:25:30;;;;;;;14.27;1.50;;;;;;;19.57;45.62;101432.31;16120859;19;130644;-36
2022/11/01 18:30:57;;;;;;;8.15;1.30;;;;;;;19.69;45.84;101433.19;16123240;19;129090;-35
2022/11/01 18:36:31;;;;;;;10.00;1.45;;;;;;;19.94;45.66;101434.03;16119810;19;130031;-35
2022/11/01 18:41:53;;;;;;;9.02;1.38;;;;;;;20.28;45.19;101435.09;16124141;19;129729;-35
2022/11/01 18:47:27;;;;;;;12.15;1.42;;;;;;;20.67;44.88;101430.88;16120709;19;130261;-35
2022/11/01 18:53:04;;;;;;;5.55;1.15;;;;;;;20.96;44.72;101433.66;16121179;19;130626;-36
2022/11/01 18:58:28;;;;;;;7.28;1.00;;;;;;;21.06;44.54;101437.47;16119011;19;129686;-35
2022/11/01 19:04:26;;;;;;;6.50;1.30;;;;;;;21.10;44.37;101423.91;16118813;19;129785;-35
2022/11/01 19:09:52;;;;;;;8.23;1.13;;;;;;;21.07;44.38;101429.97;16118157;19;129945;-36
2022/11/01 19:15:22;;;;;;;8.70;1.10;;;;;;;21.02;44.68;101424.31;16118039;19;129519;-36
2022/11/01 19:20:51;;;;;;;5.32;1.08;;;;;;;20.95;44.77;101421.69;16117741;19;130534;-35
2022/11/01 19:26:24;;;;;;;12.80;1.25;;;;;;;20.89;44.67;101417.97;16118642;19;130544;-36
2022/11/01 19:31:54;;;;;;;4.40;0.80;;;;;;;20.82;44.51;101411.72;16131445;19;129928;-35
2022/11/01 19:37:39;;;;;;;5.78;1.05;;;;;;;20.76;44.52;101407.16;16136560;19;129662;-35
2022/11/01 19:43:27;;;;;;;8.35;1.20;;;;;;;20.69;44.78;101389.75;16134804;19;130133;-35
2022/11/01 19:48:51;;;;;;;4.82;1.05;;;;;;;20.64;45.32;101389.66;16133061;19;129231;-35
2022/11/01 19:54:12;;;;;;;9.65;1.10;;;;;;;20.62;45.23;101383.50;16137910;19;131401;-35
2022/11/01 19:59:36;;;;;;;10.90;1.17;;;;;;;20.60;45.53;101384.59;16134049;19;129996;-35
2022/11/01 20:04:59;;;;;;;12.02;1.02;;;;;;;20.59;45.41;101380.13;16134334;19;129766;-36
2022/11/01 20:10:20;;;;;;;5.20;1.13;;;;;;;20.57;45.55;101370.34;16130862;19;129011;-36
2022/11/01 20:15:43;;;;;;;5.63;1.15;;;;;;;20.57;45.84;101365.63;16131519;19;134089;-35
2022/11/01 20:21:05;;;;;;;5.72;1.10;;;;;;;20.62;45.69;101373.22;16130800;19;129853;-35
2022/11/01 20:26:26;;;;;;;4.45;0.90;;;;;;;20.66;45.51;101366.06;16129065;19;129112;-35
2022/11/01 20:31:48;;;;;;;3.92;0.93;;;;;;;20.70;45.57;101370.03;16126794;19;129664;-36
2022/11/01 20:37:10;;;;;;;6.22;1.10;;;;;;;20.73;45.32;101379.81;16129823;19;129642;-35
2022/11/01 20:42:51;;;;;;;9.80;1.42;;;;;;;20.77;45.14;101394.09;16127422;19;129615;-36
2022/11/01 20:48:12;;;;;;;3.10;0.90;;;;;;;20.79;45.65;101401.09;16129979;19;130074;-35
2022/11/01 20:53:34;;;;;;;5.95;1.00;;;;;;;20.80;45.13;101408.31;16129870;19;129606;-35
2022/11/01 20:58:56;;;;;;;5.93;0.88;;;;;;;20.81;45.44;101415.56;16127178;19;130285;-35
2022/11/01 21:04:18;;;;;;;5.70;1.00;;;;;;;20.81;45.09;101409.19;16128403;19;131061;-36
2022/11/01 21:09:45;;;;;;;10.73;1.30;;;;;;;20.82;44.93;101411.72;16122632;19;131608;-35
2022/11/01 21:15:34;;;;;;;15.45;1.52;;;;;;;20.84;45.09;101403.97;16121232;19;130602;-36
2022/11/01 21:20:57;;;;;;;17.85;1.95;;;;;;;20.81;45.02;101415.56;16123123;19;130366;-36
2022/11/01 21:26:22;;;;;;;13.27;1.50;;;;;;;20.77;44.88;101419.13;16123316;19;129531;-35
2022/11/01 21:31:44;;;;;;;7.45;0.90;;;;;;;20.71;45.39;101421.78;16126744;19;129784;-36
2022/11/01 21:37:07;;;;;;;9.93;1.40;;;;;;;20.66;45.46;101399.44;16129047;19;129387;-36
2022/11/01 21:42:34;;;;;;;17.20;1.77;;;;;;;20.59;45.18;101394.03;16124530;19;129537;-36
2022/11/01 21:48:18;;;;;;;8.90;1.27;;;;;;;20.53;45.10;101406.16;16124473;19;130134;-36
2022/11/01 21:53:40;;;;;;;7.38;1.15;;;;;;;20.47;45.64;101393.22;16124921;19;131077;-36
2022/11/01 21:59:01;;;;;;;6.15;1.20;;;;;;;20.43;45.71;101394.81;16126222;19;129867;-36
2022/11/01 22:04:23;;;;;;;7.10;0.95;;;;;;;20.39;45.66;101385.28;16125451;19;129597;-36
2022/11/01 22:09:49;;;;;;;5.15;0.95;;;;;;;20.37;45.49;101387.47;16123913;19;129471;-36
2022/11/01 22:15:11;;;;;;;5.28;0.80;;;;;;;20.32;45.57;101379.00;16123248;19;129620;-36
2022/11/01 22:20:33;;;;;;;5.45;0.85;;;;;;;20.28;45.52;101365.63;16120809;19;129388;-35
2022/11/01 22:25:54;;;;;;;7.25;0.98;;;;;;;20.23;45.55;101368.31;16124922;19;130729;-36
2022/11/01 22:31:17;;;;;;;5.55;0.88;;;;;;;20.20;45.75;101354.91;16120705;19;130987;-42
2022/11/01 22:36:40;;;;;;;4.50;0.70;;;;;;;20.18;45.34;101348.78;16120465;19;130119;-47
2022/11/01 22:42:04;;;;;;;7.15;1.38;;;;;;;20.14;45.62;101350.34;16123021;19;129930;-43
2022/11/01 22:47:28;;;;;;;4.07;0.90;;;;;;;20.12;45.54;101352.50;16120715;19;129711;-36
2022/11/01 22:52:49;;;;;;;7.15;1.30;;;;;;;20.09;45.37;101351.09;16119922;19;129488;-36
2022/11/01 22:58:23;;;;;;;3.85;1.08;;;;;;;20.07;45.54;101338.50;16120577;19;129054;-45
2022/11/01 23:03:45;;;;;;;6.07;0.93;;;;;;;20.03;45.18;101335.38;16125721;19;129520;-36
2022/11/01 23:09:17;;;;;;;3.05;0.90;;;;;;;20.02;45.48;101343.97;16135912;19;130836;-35
2022/11/01 23:14:44;;;;;;;2.22;0.60;;;;;;;20.01;45.09;101347.84;16133622;19;130424;-35
2022/11/01 23:20:08;;;;;;;2.20;0.60;;;;;;;19.98;45.57;101349.16;16135173;19;129020;-35
2022/11/01 23:25:31;;;;;;;3.78;0.70;;;;;;;19.95;45.25;101350.47;16132491;19;129617;-36
2022/11/01 23:30:54;;;;;;;4.32;0.70;;;;;;;19.94;45.11;101362.66;16132490;19;128990;-36
2022/11/01 23:36:23;;;;;;;4.22;0.80;;;;;;;19.92;45.04;101348.19;16131662;19;129653;-36
2022/11/01 23:41:51;;;;;;;3.60;0.80;;;;;;;19.90;45.23;101361.47;16135611;19;129568;-35
2022/11/01 23:47:31;;;;;;;3.50;0.68;;;;;;;19.89;45.02;101364.47;16132044;19;129396;-36
2022/11/01 23:53:03;;;;;;;3.63;0.75;;;;;;;19.87;44.95;101361.97;16132080;19;130496;-36
2022/11/01 23:58:28;;;;;;;2.40;0.63;;;;;;;19.85;45.22;101364.13;16135561;19;129749;-36
